Flight Track Log - Related Links

Times and Time Zones

All times are in EDT time to prevent confusion due to time zone crossing. See the N27XP flight status page for this flight to view local times or setup timezone preferences in your user account.

Time Position Orientation Groundspeed Altitude Reporting Facility
EDT Latitude Longitude Course Direction KTS MPH feet Rate Location/Type
Fri 08:52:00 AM 35.2906 -79.8056 283° West  Level FlightAware Approximate
Fri 08:53:00 AM 35.3032 -79.8755 283° West  Level FlightAware Approximate
Fri 08:53:08 AM 35.3658 -79.9333 280° West 290 334 5,900  Level Atlanta Center
Fri 08:54:00 AM 35.3158 -79.9454 282° West  Level FlightAware Approximate
Fri 08:54:20 AM 35.3758 -80.0500 276° West 284 327 5,900  Level Atlanta Center
Fri 08:55:00 AM 35.3167 -80.0169 270° West  Level FlightAware Approximate
Fri 08:55:27 AM 35.3897 -80.1536 279° West 284 327 5,900  Level Atlanta Center
Fri 08:56:00 AM 35.3246 -80.0876 280° West  Level FlightAware Approximate
Fri 08:56:27 AM 35.4011 -80.2475 278° West 285 328 5,900  Level Atlanta Center
Fri 08:57:00 AM 35.3349 -80.1581 280° West  Level FlightAware Approximate
Fri 08:57:28 AM 35.4144 -80.3489 279° West 283 326 6,000  Level Atlanta Center
Fri 08:58:00 AM 35.3451 -80.2286 280° West  Level FlightAware Approximate
Fri 08:58:23 AM 35.4253 -80.4325 279° West 283 326 5,400  Level Atlanta Center
Fri 08:59:23 AM 35.4408 -80.5336 281° West 283 326 3,400 -1,252 Descending Atlanta Center
Fri 09:00:18 AM 35.4556 -80.6147 283° West 285 328 3,000 -207 Descending Atlanta Center
Fri 09:01:19 AM 35.4686 -80.7083 280° West 265 305 3,000  Level Atlanta Center
Fri 09:02:25 AM 35.4753 -80.8025 275° West 260 299 3,000 -50 Level Atlanta Center
Fri 09:03:20 AM 35.4794 -80.8814 274° West 246 283 2,900  Descending Atlanta Center
Fri 09:04:21 AM 35.4856 -80.9578 276° West 215 247 3,000 50 Climbing Atlanta Center
Fri 09:05:21 AM 35.5039 -81.0258 288° West 210 242 3,000  Level Atlanta Center

Login

Don't have an account? Register now (free) for customized features, flight alerts, and more!